Time;durP1;ratioP1;P1;durP2;ratioP2;P2;SDS_P1;SDS_P2;PMS_P1;PMS_P2;Temp;Humidity;BMP_temperature;BMP_pressure;BME280_temperature;BME280_humidity;BME280_pressure;Samples;Min_cycle;Max_cycle;Signal;HPM_P1;HPM_P2
2023/07/14 00:00:08;;;;;;;;;;;;;;;22.44;78.63;99778.14;108251;1258;61134;-88
2023/07/14 00:02:37;;;;;;;;;;;;;;;22.44;78.78;99777.29;108204;1254;74659;-87
2023/07/14 00:05:04;;;;;;;;;;;;;;;22.44;78.86;99771.23;108240;1254;72615;-86
2023/07/14 00:07:32;;;;;;;;;;;;;;;22.44;78.97;99765.73;108205;1254;72443;-86
2023/07/14 00:09:59;;;;;;;;;;;;;;;22.46;79.08;99757.36;108144;1254;61943;-85
2023/07/14 00:12:26;;;;;;;;;;;;;;;22.48;79.00;99751.65;108138;1253;61363;-85
2023/07/14 00:18:33;;;;;;;;;;;;;;;22.55;79.08;99738.11;108050;1256;72765;-84
2023/07/14 00:20:59;;;;;;;;;;;;;;;22.57;79.25;99737.37;108306;1255;72513;-85
2023/07/14 00:23:26;;;;;;;;;;;;;;;22.58;79.24;99733.58;108299;1256;61297;-85
2023/07/14 00:25:53;;;;;;;;;;;;;;;22.59;79.46;99731.88;108296;1254;61362;-85
2023/07/14 00:28:21;;;;;;;;;;;;;;;22.62;79.29;99730.08;108101;1254;74524;-84
2023/07/14 00:30:48;;;;;;;;;;;;;;;22.61;79.29;99733.64;108120;1254;72781;-84
2023/07/14 00:33:18;;;;;;;;;;;;;;;22.60;79.36;99736.79;108180;1255;71424;-84
2023/07/14 00:35:47;;;;;;;;;;;;;;;22.60;79.34;99737.27;108186;1258;62091;-84
2023/07/14 00:38:15;;;;;;;;;;;;;;;22.62;79.32;99734.12;108172;1254;59967;-83
2023/07/14 00:40:45;;;;;;;;;;;;;;;22.62;79.33;99740.04;108167;1254;74583;-83
2023/07/14 00:43:24;;;;;;;;;;;;;;;22.60;79.40;99747.68;108144;1254;72553;-83
2023/07/14 00:45:51;;;;;;;;;;;;;;;22.55;79.48;99748.54;108196;1254;72650;-82
2023/07/14 00:48:19;;;;;;;;;;;;;;;22.55;79.55;99739.43;108149;1254;61145;-83
2023/07/14 00:50:49;;;;;;;;;;;;;;;22.55;79.63;99739.11;108229;1254;61257;-82
2023/07/14 00:53:23;;;;;;;;;;;;;;;22.55;79.77;99743.31;108207;1254;73425;-83
2023/07/14 00:55:52;;;;;;;;;;;;;;;22.55;79.96;99745.65;108194;1254;72738;-83
2023/07/14 00:58:22;;;;;;;;;;;;;;;22.57;79.94;99746.69;108219;1254;73683;-83
2023/07/14 01:01:09;;;;;;;;;;;;;;;22.61;79.79;99745.55;108266;1258;61987;-83
2023/07/14 01:03:42;;;;;;;;;;;;;;;22.71;79.32;99752.35;108224;1259;61296;-83
2023/07/14 01:06:12;;;;;;;;;;;;;;;22.63;79.31;99752.04;108235;1259;74940;-84
2023/07/14 01:08:41;;;;;;;;;;;;;;;22.56;79.75;99749.55;108194;1258;72796;-83
2023/07/14 01:11:08;;;;;;;;;;;;;;;22.50;79.90;99741.73;108218;1253;72682;-83
2023/07/14 01:13:35;;;;;;;;;;;;;;;22.45;80.17;99737.36;108175;1253;61099;-83
2023/07/14 01:16:01;;;;;;;;;;;;;;;22.48;80.34;99736.33;108121;1253;61200;-83
2023/07/14 01:18:29;;;;;;;;;;;;;;;22.52;80.53;99737.18;108176;1254;73507;-83
2023/07/14 01:20:56;;;;;;;;;;;;;;;22.57;80.79;99734.95;108170;1254;72595;-83
2023/07/14 01:23:42;;;;;;;;;;;;;;;22.72;80.20;99733.79;108135;1254;72445;-83
2023/07/14 01:26:26;;;;;;;;;;;;;;;22.60;80.19;99732.60;108154;1254;59570;-84
2023/07/14 01:28:53;;;;;;;;;;;;;;;22.52;80.52;99729.09;108161;1254;61171;-84
2023/07/14 01:31:21;;;;;;;;;;;;;;;22.48;80.38;99728.55;108126;1254;73711;-84
2023/07/14 01:33:52;;;;;;;;;;;;;;;22.45;80.78;99738.36;108120;1254;72687;-83
2023/07/14 01:36:20;;;;;;;;;;;;;;;22.44;80.74;99738.64;108205;1258;72798;-83
2023/07/14 01:38:48;;;;;;;;;;;;;;;22.48;80.84;99734.38;108213;1253;61846;-81
2023/07/14 01:41:17;;;;;;;;;;;;;;;22.54;81.14;99729.61;108182;1254;61188;-84
2023/07/14 01:43:44;;;;;;;;;;;;;;;22.63;81.12;99734.77;108199;1254;74547;-82
2023/07/14 01:46:15;;;;;;;;;;;;;;;22.70;80.86;99728.61;108043;1254;71670;-81
2023/07/14 01:48:51;;;;;;;;;;;;;;;22.69;80.69;99726.17;108121;1253;72597;-82
2023/07/14 01:51:19;;;;;;;;;;;;;;;22.67;80.64;99717.51;108252;1254;60702;-82
2023/07/14 01:53:49;;;;;;;;;;;;;;;22.65;80.44;99714.05;108142;1254;61163;-81
2023/07/14 01:56:16;;;;;;;;;;;;;;;22.64;80.38;99715.13;108156;1254;74678;-81
2023/07/14 01:59:14;;;;;;;;;;;;;;;22.64;80.45;99720.96;108091;1259;71153;-82
2023/07/14 02:01:41;;;;;;;;;;;;;;;22.66;80.57;99725.02;108028;1257;72715;-82
2023/07/14 02:04:10;;;;;;;;;;;;;;;22.66;80.39;99727.27;108123;1254;62169;-81
2023/07/14 02:14:59;;;;;;;;;;;;;;;22.57;80.26;99726.78;108124;1254;71450;-81
2023/07/14 02:17:31;;;;;;;;;;;;;;;22.65;80.03;99727.10;108141;1254;72799;-82
2023/07/14 02:19:59;;;;;;;;;;;;;;;22.76;79.49;99722.80;108119;1254;61698;-82
2023/07/14 02:22:25;;;;;;;;;;;;;;;22.65;79.78;99732.73;108146;1254;61219;-82
2023/07/14 02:24:53;;;;;;;;;;;;;;;22.69;79.86;99734.56;108180;1254;73774;-82
2023/07/14 02:27:19;;;;;;;;;;;;;;;22.80;79.54;99738.05;108117;1254;72952;-81
2023/07/14 02:29:46;;;;;;;;;;;;;;;22.83;79.39;99740.77;108142;1254;72708;-81
2023/07/14 02:32:19;;;;;;;;;;;;;;;22.85;79.33;99743.77;108118;1254;63029;-81
2023/07/14 02:34:51;;;;;;;;;;;;;;;22.88;79.30;99750.89;108131;1254;61128;-81
2023/07/14 02:37:44;;;;;;;;;;;;;;;22.88;79.25;99748.88;108117;1254;74612;-81
2023/07/14 02:40:17;;;;;;;;;;;;;;;22.85;79.37;99744.08;108173;1254;72873;-81
2023/07/14 02:42:46;;;;;;;;;;;;;;;22.87;79.52;99741.31;108136;1259;72666;-81
2023/07/14 02:45:13;;;;;;;;;;;;;;;22.86;79.46;99736.08;108120;1254;61904;-81
2023/07/14 02:47:44;;;;;;;;;;;;;;;22.84;79.70;99743.27;108160;1254;61232;-82
2023/07/14 02:50:12;;;;;;;;;;;;;;;22.81;79.61;99745.56;108087;1254;74475;-81
2023/07/14 02:52:42;;;;;;;;;;;;;;;22.79;79.80;99746.98;108191;1254;72796;-81
2023/07/14 02:55:10;;;;;;;;;;;;;;;22.77;80.10;99747.02;108144;1257;72532;-81
2023/07/14 02:57:40;;;;;;;;;;;;;;;22.73;80.39;99748.66;108246;1254;61833;-81
2023/07/14 03:00:11;;;;;;;;;;;;;;;22.69;80.43;99747.58;108219;1254;61174;-82
2023/07/14 03:02:39;;;;;;;;;;;;;;;22.69;80.62;99747.97;108189;1254;73329;-82
2023/07/14 03:05:08;;;;;;;;;;;;;;;22.70;80.90;99747.14;108218;1254;72864;-82
2023/07/14 03:07:38;;;;;;;;;;;;;;;22.72;80.89;99756.96;108178;1253;70816;-82
2023/07/14 03:10:11;;;;;;;;;;;;;;;22.74;80.83;99763.67;108162;1254;61931;-82
2023/07/14 03:12:38;;;;;;;;;;;;;;;22.76;80.79;99769.55;108173;1254;61038;-83
2023/07/14 03:15:06;;;;;;;;;;;;;;;22.75;80.91;99771.17;108138;1254;73461;-83
2023/07/14 03:17:34;;;;;;;;;;;;;;;22.74;80.98;99771.59;108159;1254;71704;-82
2023/07/14 03:20:04;;;;;;;;;;;;;;;22.72;81.02;99771.34;108108;1254;71228;-83
2023/07/14 03:22:39;;;;;;;;;;;;;;;22.72;80.97;99767.53;108133;1254;63190;-83
2023/07/14 03:25:11;;;;;;;;;;;;;;;22.78;81.21;99771.84;108142;1254;61263;-82
2023/07/14 03:27:40;;;;;;;;;;;;;;;22.84;81.23;99769.50;108157;1254;74575;-82
2023/07/14 03:30:11;;;;;;;;;;;;;;;22.88;81.02;99757.98;108161;1254;73857;-82
2023/07/14 03:32:42;;;;;;;;;;;;;;;22.91;81.05;99748.07;108128;1254;72466;-83
2023/07/14 03:35:10;;;;;;;;;;;;;;;22.91;80.82;99741.55;108150;1253;61236;-83
2023/07/14 03:37:41;;;;;;;;;;;;;;;22.92;80.85;99746.27;108149;1257;61242;-83
2023/07/14 03:40:08;;;;;;;;;;;;;;;22.95;80.82;99750.05;108141;1254;73514;-83
2023/07/14 03:42:36;;;;;;;;;;;;;;;22.98;80.85;99755.17;108112;1254;72872;-83
2023/07/14 03:45:03;;;;;;;;;;;;;;;23.00;80.80;99760.65;108126;1254;72782;-83
2023/07/14 03:47:30;;;;;;;;;;;;;;;22.89;81.22;99762.90;108148;1254;61847;-83
2023/07/14 03:49:57;;;;;;;;;;;;;;;22.82;81.49;99761.98;108218;1254;61144;-83
2023/07/14 03:52:28;;;;;;;;;;;;;;;22.79;81.47;99764.31;108288;1254;74419;-83
2023/07/14 03:54:59;;;;;;;;;;;;;;;22.75;81.57;99769.61;108214;1257;71690;-83
2023/07/14 03:57:29;;;;;;;;;;;;;;;22.71;81.69;99768.84;108155;1257;72473;-82
2023/07/14 04:00:14;;;;;;;;;;;;;;;22.77;81.56;99772.23;108168;1254;61712;-84
2023/07/14 04:02:48;;;;;;;;;;;;;;;22.88;81.05;99777.50;108225;1254;61157;-84
2023/07/14 04:05:18;;;;;;;;;;;;;;;22.90;80.77;99789.91;108192;1254;74723;-85
2023/07/14 04:07:48;;;;;;;;;;;;;;;22.89;80.67;99787.24;108143;1254;71550;-85
2023/07/14 04:10:15;;;;;;;;;;;;;;;22.89;80.45;99789.27;108169;1254;72491;-86
2023/07/14 04:12:43;;;;;;;;;;;;;;;22.86;80.17;99803.13;108144;1253;61833;-87
2023/07/14 04:15:10;;;;;;;;;;;;;;;22.82;80.10;99802.12;108190;1254;61222;-86
2023/07/14 04:17:37;;;;;;;;;;;;;;;22.79;80.15;99798.25;108190;1257;74682;-86
2023/07/14 04:20:05;;;;;;;;;;;;;;;22.73;79.92;99801.55;108177;1254;72666;-82
2023/07/14 04:22:32;;;;;;;;;;;;;;;22.60;81.01;99804.16;108164;1254;71800;-84
2023/07/14 04:24:59;;;;;;;;;;;;;;;22.48;80.58;99809.48;108129;1254;62929;-83
2023/07/14 04:27:26;;;;;;;;;;;;;;;22.40;80.17;99824.02;108193;1254;61299;-84
2023/07/14 04:29:53;;;;;;;;;;;;;;;22.37;79.87;99825.02;108218;1254;74472;-82
2023/07/14 04:32:21;;;;;;;;;;;;;;;22.34;79.64;99824.35;108205;1254;72862;-84
2023/07/14 04:34:50;;;;;;;;;;;;;;;22.22;79.98;99824.92;108148;1254;72822;-85
2023/07/14 04:37:18;;;;;;;;;;;;;;;22.20;80.60;99826.44;108143;1254;62955;-84
2023/07/14 04:39:45;;;;;;;;;;;;;;;22.20;80.76;99829.45;108207;1254;61092;-84
2023/07/14 04:42:13;;;;;;;;;;;;;;;22.18;80.79;99834.31;108209;1254;72795;-84
2023/07/14 04:44:42;;;;;;;;;;;;;;;22.17;81.20;99841.96;108168;1254;73675;-83
2023/07/14 04:47:09;;;;;;;;;;;;;;;22.17;81.18;99852.70;108125;1254;72749;-84
2023/07/14 04:49:37;;;;;;;;;;;;;;;22.19;81.22;99858.75;108125;1254;61215;-84
2023/07/14 04:52:05;;;;;;;;;;;;;;;22.23;81.05;99866.35;108137;1257;59993;-84
2023/07/14 04:54:36;;;;;;;;;;;;;;;22.22;80.75;99867.59;108168;1254;74975;-83
2023/07/14 04:57:05;;;;;;;;;;;;;;;22.23;80.75;99874.05;108173;1253;72957;-84
2023/07/14 04:59:48;;;;;;;;;;;;;;;22.24;80.65;99884.27;108140;1254;72575;-87
2023/07/14 05:02:33;;;;;;;;;;;;;;;22.23;80.51;99889.06;108234;1254;61794;-86
2023/07/14 05:05:23;;;;;;;;;;;;;;;22.20;80.08;99886.96;108398;1254;61087;-85
2023/07/14 05:07:55;;;;;;;;;;;;;;;22.31;79.39;99884.50;108191;1254;75196;-87
2023/07/14 05:10:25;;;;;;;;;;;;;;;22.31;79.17;99896.94;108383;1254;72172;-86
2023/07/14 05:12:56;;;;;;;;;;;;;;;22.33;79.15;99908.33;108321;1254;70790;-87
2023/07/14 05:15:24;;;;;;;;;;;;;;;22.36;79.17;99913.15;108309;1253;62158;-86
2023/07/14 05:17:51;;;;;;;;;;;;;;;22.32;79.17;99910.47;108180;1253;61137;-86
2023/07/14 05:20:19;;;;;;;;;;;;;;;22.23;79.37;99914.23;108277;1254;74635;-84
2023/07/14 05:22:47;;;;;;;;;;;;;;;22.19;79.68;99910.17;108258;1254;71196;-84
2023/07/14 05:25:15;;;;;;;;;;;;;;;22.19;80.00;99896.12;108189;1254;71239;-84
2023/07/14 05:27:43;;;;;;;;;;;;;;;22.25;80.02;99890.80;108215;1254;61892;-84
2023/07/14 05:30:15;;;;;;;;;;;;;;;22.21;80.06;99890.10;108343;1254;61277;-86
2023/07/14 05:32:43;;;;;;;;;;;;;;;22.14;79.75;99889.59;108234;1254;74497;-85
2023/07/14 05:35:12;;;;;;;;;;;;;;;22.07;79.82;99892.05;108191;1254;72796;-85
2023/07/14 05:37:42;;;;;;;;;;;;;;;22.04;79.82;99888.02;108313;1254;72526;-84
2023/07/14 05:40:12;;;;;;;;;;;;;;;22.02;79.93;99894.72;108206;1254;61157;-85
2023/07/14 05:42:43;;;;;;;;;;;;;;;21.98;79.87;99898.97;108357;1254;59896;-85
2023/07/14 05:45:12;;;;;;;;;;;;;;;21.96;79.87;99903.12;108414;1254;74736;-86
2023/07/14 05:47:42;;;;;;;;;;;;;;;21.94;80.00;99903.46;108527;1254;71915;-86
2023/07/14 05:50:14;;;;;;;;;;;;;;;21.93;80.04;99907.77;108626;1254;73207;-86
2023/07/14 05:52:42;;;;;;;;;;;;;;;21.93;80.36;99911.89;108200;1254;63045;-86
2023/07/14 05:55:10;;;;;;;;;;;;;;;21.94;80.47;99915.34;108143;1255;61065;-88
2023/07/14 05:57:36;;;;;;;;;;;;;;;21.96;80.43;99917.86;108161;1254;74752;-87
2023/07/14 06:00:12;;;;;;;;;;;;;;;21.96;80.61;99912.43;108169;1253;72495;-85
2023/07/14 06:02:41;;;;;;;;;;;;;;;21.96;80.41;99913.54;108255;1254;72871;-87
2023/07/14 06:05:08;;;;;;;;;;;;;;;21.95;80.11;99918.94;108152;1254;61696;-86
2023/07/14 06:07:36;;;;;;;;;;;;;;;21.92;79.79;99915.89;108211;1254;61083;-87
2023/07/14 06:10:07;;;;;;;;;;;;;;;21.88;79.64;99914.25;108157;1254;74579;-87
2023/07/14 06:12:36;;;;;;;;;;;;;;;21.84;79.59;99914.52;108179;1254;73693;-88
2023/07/14 06:15:03;;;;;;;;;;;;;;;21.75;79.28;99916.40;108154;1253;72481;-88
2023/07/14 06:17:29;;;;;;;;;;;;;;;21.68;79.33;99920.94;108167;1254;62004;-88
2023/07/14 06:19:57;;;;;;;;;;;;;;;21.61;79.51;99928.83;108208;1254;61101;-87
2023/07/14 06:22:24;;;;;;;;;;;;;;;21.55;79.38;99928.67;108206;1254;73398;-87
2023/07/14 06:24:53;;;;;;;;;;;;;;;21.52;79.74;99931.05;108225;1254;72035;-87
2023/07/14 06:27:23;;;;;;;;;;;;;;;21.48;79.90;99932.66;108126;1257;72569;-88
2023/07/14 06:29:51;;;;;;;;;;;;;;;21.43;80.19;99941.52;108195;1254;61188;-87
2023/07/14 06:32:20;;;;;;;;;;;;;;;21.42;80.28;99944.83;108279;1254;61329;-87
2023/07/14 06:34:50;;;;;;;;;;;;;;;21.43;80.41;99947.64;108161;1254;73222;-86
2023/07/14 06:37:17;;;;;;;;;;;;;;;21.56;80.09;99955.70;108278;1254;72530;-86
2023/07/14 06:39:45;;;;;;;;;;;;;;;21.53;80.30;99957.41;108221;1254;72835;-86
2023/07/14 06:42:12;;;;;;;;;;;;;;;21.48;80.58;99961.84;108206;1254;61830;-86
2023/07/14 06:44:40;;;;;;;;;;;;;;;21.52;80.92;99964.85;108122;1254;59157;-86
2023/07/14 06:47:14;;;;;;;;;;;;;;;21.58;80.87;99969.58;108307;1253;74785;-86
2023/07/14 06:49:42;;;;;;;;;;;;;;;21.61;81.14;99974.62;108479;1254;71648;-87
2023/07/14 06:52:13;;;;;;;;;;;;;;;21.65;81.24;99978.31;108354;1254;71564;-85
2023/07/14 06:54:46;;;;;;;;;;;;;;;21.68;81.24;99982.23;108222;1253;61131;-86
2023/07/14 06:57:13;;;;;;;;;;;;;;;21.70;81.18;99981.88;108195;1254;61193;-87
2023/07/14 06:59:41;;;;;;;;;;;;;;;21.68;80.66;99990.89;108118;1254;74525;-84
2023/07/14 07:02:12;;;;;;;;;;;;;;;21.65;80.66;99996.48;108143;1254;72798;-84
2023/07/14 07:04:41;;;;;;;;;;;;;;;21.66;80.65;99995.66;108207;1254;72862;-84
2023/07/14 07:07:08;;;;;;;;;;;;;;;21.69;80.63;99989.63;108121;1254;62966;-83
2023/07/14 07:09:35;;;;;;;;;;;;;;;21.72;80.66;99986.98;108133;1253;61153;-84
2023/07/14 07:12:04;;;;;;;;;;;;;;;21.72;80.62;99986.67;108194;1254;74480;-84
2023/07/14 07:14:32;;;;;;;;;;;;;;;21.72;80.75;99986.29;108166;1254;73890;-84
2023/07/14 07:16:59;;;;;;;;;;;;;;;21.72;80.71;99990.32;108198;1254;72751;-85
2023/07/14 07:19:28;;;;;;;;;;;;;;;21.73;80.26;99995.02;108192;1257;61160;-85
2023/07/14 07:21:56;;;;;;;;;;;;;;;21.72;80.18;99998.25;108152;1259;61250;-85
2023/07/14 07:24:25;;;;;;;;;;;;;;;21.71;80.26;100003.89;108175;1253;74556;-85
2023/07/14 07:26:58;;;;;;;;;;;;;;;21.70;80.38;100005.65;108160;1254;74085;-85
2023/07/14 07:29:30;;;;;;;;;;;;;;;21.72;80.13;100008.89;108111;1257;72561;-87
2023/07/14 07:32:03;;;;;;;;;;;;;;;21.70;80.12;100019.23;108216;1254;62100;-86
2023/07/14 07:34:33;;;;;;;;;;;;;;;21.68;79.68;100019.48;108137;1254;61158;-87
2023/07/14 07:37:03;;;;;;;;;;;;;;;21.66;79.46;100023.25;108170;1254;73218;-86
2023/07/14 07:39:33;;;;;;;;;;;;;;;21.66;79.48;100024.95;108167;1254;71475;-86
2023/07/14 07:42:01;;;;;;;;;;;;;;;21.68;79.13;100033.23;108108;1254;72737;-86
2023/07/14 07:44:28;;;;;;;;;;;;;;;21.71;79.14;100038.05;108154;1254;62009;-85
2023/07/14 07:46:58;;;;;;;;;;;;;;;21.74;79.14;100049.00;108199;1254;61120;-84
2023/07/14 07:49:25;;;;;;;;;;;;;;;21.76;79.10;100053.27;108193;1254;74703;-85
2023/07/14 07:51:52;;;;;;;;;;;;;;;21.81;78.89;100061.34;108190;1254;72790;-85
2023/07/14 07:54:19;;;;;;;;;;;;;;;21.85;78.61;100062.75;108130;1254;72591;-85
2023/07/14 07:56:46;;;;;;;;;;;;;;;21.92;78.74;100063.10;108109;1254;62187;-85
2023/07/14 07:59:15;;;;;;;;;;;;;;;21.99;78.57;100068.98;108132;1254;61358;-85
2023/07/14 08:01:43;;;;;;;;;;;;;;;22.19;78.02;100072.29;108122;1254;72384;-85
2023/07/14 08:04:10;;;;;;;;;;;;;;;22.20;78.02;100072.02;108177;1253;73735;-84
2023/07/14 08:06:37;;;;;;;;;;;;;;;22.27;77.95;100072.51;108187;1254;72553;-84
2023/07/14 08:09:06;;;;;;;;;;;;;;;22.39;78.02;100074.00;108183;1257;62137;-84
2023/07/14 08:11:34;;;;;;;;;;;;;;;22.53;78.17;100075.23;108180;1254;61125;-85
2023/07/14 08:14:04;;;;;;;;;;;;;;;22.69;77.95;100071.42;108196;1254;73392;-85
2023/07/14 08:16:31;;;;;;;;;;;;;;;22.86;77.91;100072.25;108184;1254;72911;-84
2023/07/14 08:18:59;;;;;;;;;;;;;;;23.02;77.70;100068.23;108233;1254;71280;-83
2023/07/14 08:21:26;;;;;;;;;;;;;;;23.20;77.29;100069.27;108208;1254;61083;-83
2023/07/14 08:23:54;;;;;;;;;;;;;;;23.32;76.96;100070.10;108562;1254;61090;-84
2023/07/14 08:26:21;;;;;;;;;;;;;;;23.48;76.72;100066.40;108720;1254;75687;-83
2023/07/14 08:28:48;;;;;;;;;;;;;;;23.64;76.30;100071.27;108751;1254;71695;-83
2023/07/14 08:31:15;;;;;;;;;;;;;;;23.79;75.81;100072.86;108650;1254;71309;-84
2023/07/14 08:33:43;;;;;;;;;;;;;;;23.95;75.39;100077.32;108651;1254;60926;-83
2023/07/14 08:36:13;;;;;;;;;;;;;;;24.11;75.05;100077.09;108736;1253;61141;-82
2023/07/14 08:38:43;;;;;;;;;;;;;;;24.29;74.33;100074.00;108203;1254;73498;-82
2023/07/14 08:41:24;;;;;;;;;;;;;;;24.36;72.81;100079.77;108174;1254;70330;-82
2023/07/14 08:43:53;;;;;;;;;;;;;;;24.37;71.78;100086.39;108197;1257;72449;-82
2023/07/14 08:46:26;;;;;;;;;;;;;;;24.39;71.32;100088.38;108250;1254;61173;-82
2023/07/14 08:48:53;;;;;;;;;;;;;;;24.44;70.86;100092.10;108204;1254;61268;-82
2023/07/14 08:51:20;;;;;;;;;;;;;;;24.50;70.41;100093.38;108192;1254;74693;-83
2023/07/14 08:53:52;;;;;;;;;;;;;;;24.58;69.98;100092.13;108174;1254;71157;-83
2023/07/14 08:56:19;;;;;;;;;;;;;;;24.65;69.25;100095.38;108091;1257;73128;-83
2023/07/14 08:58:46;;;;;;;;;;;;;;;24.68;68.77;100094.25;108098;1254;61031;-83
2023/07/14 09:01:16;;;;;;;;;;;;;;;24.74;68.60;100090.05;108119;1254;61267;-82
2023/07/14 09:03:44;;;;;;;;;;;;;;;24.84;68.19;100085.92;108082;1254;75273;-83
2023/07/14 09:06:31;;;;;;;;;;;;;;;24.98;67.76;100081.63;108121;1254;72672;-82
2023/07/14 09:08:59;;;;;;;;;;;;;;;25.28;67.47;100077.05;108197;1253;72876;-82
2023/07/14 09:11:39;;;;;;;;;;;;;;;25.59;66.64;100074.59;108177;1253;60313;-82
2023/07/14 09:14:11;;;;;;;;;;;;;;;25.89;65.40;100070.01;108262;1254;61165;-82
2023/07/14 09:16:42;;;;;;;;;;;;;;;26.15;63.52;100073.20;108198;1254;73975;-82
2023/07/14 09:19:09;;;;;;;;;;;;;;;26.28;59.92;100073.81;108132;1254;71091;-82
2023/07/14 09:21:39;;;;;;;;;;;;;;;26.25;57.46;100076.60;108147;1254;72393;-82
2023/07/14 09:24:06;;;;;;;;;;;;;;;26.14;56.58;100072.89;108165;1254;62006;-82
2023/07/14 09:27:00;;;;;;;;;;;;;;;26.07;56.92;100073.05;108144;1254;61152;-82
2023/07/14 09:29:33;;;;;;;;;;;;;;;26.05;56.95;100073.48;108123;1254;74655;-82
2023/07/14 09:32:03;;;;;;;;;;;;;;;26.08;56.59;100073.05;108140;1253;72532;-82
2023/07/14 09:34:33;;;;;;;;;;;;;;;26.12;56.09;100071.15;108175;1253;72696;-82
2023/07/14 09:37:00;;;;;;;;;;;;;;;26.22;56.26;100069.45;108154;1257;63258;-81
2023/07/14 09:39:32;;;;;;;;;;;;;;;26.34;56.13;100066.45;108146;1253;61128;-82
2023/07/14 09:42:00;;;;;;;;;;;;;;;26.52;55.75;100065.64;108155;1254;74678;-82
2023/07/14 09:44:29;;;;;;;;;;;;;;;26.66;54.83;100065.36;108193;1254;73126;-81
2023/07/14 09:46:56;;;;;;;;;;;;;;;26.76;54.42;100064.36;108116;1254;72817;-81
2023/07/14 09:49:30;;;;;;;;;;;;;;;26.80;53.70;100061.04;108131;1254;61227;-80
2023/07/14 09:52:01;;;;;;;;;;;;;;;26.81;53.57;100060.10;108153;1254;60164;-82
2023/07/14 09:54:28;;;;;;;;;;;;;;;26.87;53.74;100062.59;108156;1254;74789;-80
2023/07/14 09:56:59;;;;;;;;;;;;;;;26.95;53.57;100069.53;108163;1254;72736;-80
2023/07/14 09:59:27;;;;;;;;;;;;;;;27.07;53.17;100070.09;108116;1255;72562;-79
2023/07/14 10:01:55;;;;;;;;;;;;;;;27.18;52.35;100071.14;108159;1254;62016;-81
2023/07/14 10:04:27;;;;;;;;;;;;;;;27.24;51.81;100074.23;108202;1254;59401;-81
2023/07/14 10:06:54;;;;;;;;;;;;;;;27.28;51.16;100080.21;108108;1254;74685;-80
2023/07/14 10:09:23;;;;;;;;;;;;;;;27.28;50.72;100082.64;108162;1254;64008;-81
2023/07/14 10:11:51;;;;;;;;;;;;;;;27.28;50.52;100081.47;108173;1258;72670;-81
2023/07/14 10:14:19;;;;;;;;;;;;;;;27.31;50.74;100077.57;108107;1254;63056;-80
2023/07/14 10:16:47;;;;;;;;;;;;;;;27.34;50.54;100084.87;108170;1254;61178;-80
2023/07/14 10:19:18;;;;;;;;;;;;;;;27.40;50.58;100084.90;108120;1254;74617;-80
2023/07/14 10:21:55;;;;;;;;;;;;;;;27.48;50.21;100082.13;108125;1254;73027;-80
2023/07/14 10:24:22;;;;;;;;;;;;;;;27.56;50.11;100084.84;108121;1254;71094;-80
2023/07/14 10:27:02;;;;;;;;;;;;;;;27.62;49.16;100083.15;108136;1254;62245;-79
2023/07/14 10:29:44;;;;;;;;;;;;;;;27.67;48.16;100085.38;108177;1254;61146;-81
2023/07/14 10:32:32;;;;;;;;;;;;;;;27.76;48.74;100085.67;108144;1254;73250;-81
2023/07/14 10:35:08;;;;;;;;;;;;;;;27.88;48.03;100086.14;108079;1254;71474;-80
2023/07/14 10:37:38;;;;;;;;;;;;;;;27.99;47.67;100083.02;108147;1254;73892;-81
2023/07/14 10:40:11;;;;;;;;;;;;;;;28.10;46.76;100080.25;108116;1254;61192;-81
2023/07/14 10:42:47;;;;;;;;;;;;;;;28.22;46.44;100082.17;108081;1255;61087;-80
2023/07/14 10:45:15;;;;;;;;;;;;;;;28.34;45.98;100086.05;108026;1255;65051;-80
2023/07/14 10:47:49;;;;;;;;;;;;;;;28.43;45.10;100086.71;108255;1253;62900;-80
2023/07/14 10:50:18;;;;;;;;;;;;;;;28.48;44.84;100085.15;108139;1254;62906;-82
2023/07/14 10:52:47;;;;;;;;;;;;;;;28.55;44.38;100085.23;108146;1253;61736;-80
2023/07/14 10:55:23;;;;;;;;;;;;;;;28.63;44.56;100083.05;108174;1254;61908;-81
2023/07/14 10:58:01;;;;;;;;;;;;;;;28.76;44.98;100081.02;108252;1254;74667;-80
2023/07/14 11:00:31;;;;;;;;;;;;;;;28.88;43.62;100080.78;108199;1254;74022;-79
2023/07/14 11:03:16;;;;;;;;;;;;;;;28.94;42.58;100083.61;108219;1253;64136;-81
2023/07/14 11:05:50;;;;;;;;;;;;;;;29.01;42.29;100087.80;108210;1253;61214;-79
2023/07/14 11:08:17;;;;;;;;;;;;;;;29.09;42.26;100087.80;108223;1257;61100;-80
2023/07/14 11:10:54;;;;;;;;;;;;;;;29.19;41.89;100091.80;108182;1254;73661;-80
2023/07/14 11:13:40;;;;;;;;;;;;;;;29.25;40.68;100087.78;108150;1254;64091;-80
2023/07/14 11:16:12;;;;;;;;;;;;;;;29.26;40.37;100088.09;108171;1254;63881;-80
2023/07/14 11:18:45;;;;;;;;;;;;;;;29.25;39.33;100091.63;108142;1254;61212;-79
2023/07/14 11:21:21;;;;;;;;;;;;;;;29.29;39.18;100094.61;108189;1254;59289;-80
2023/07/14 11:23:51;;;;;;;;;;;;;;;29.37;39.24;100093.58;108130;1253;67091;-80
2023/07/14 11:26:18;;;;;;;;;;;;;;;29.46;38.91;100087.89;108154;1254;64104;-81
2023/07/14 11:28:49;;;;;;;;;;;;;;;29.54;38.09;100084.88;108201;1254;63856;-80
2023/07/14 11:31:18;;;;;;;;;;;;;;;29.59;37.57;100074.36;108213;1253;61191;-80
2023/07/14 11:33:49;;;;;;;;;;;;;;;29.57;37.94;100074.89;108174;1254;61147;-80
2023/07/14 11:36:19;;;;;;;;;;;;;;;29.62;38.16;100071.52;104256;1254;5286677;-78
2023/07/14 11:39:03;;;;;;;;;;;;;;;29.67;37.72;100068.67;108143;1254;60014;-79
2023/07/14 11:41:32;;;;;;;;;;;;;;;29.68;38.14;100074.02;108151;1254;64124;-79
2023/07/14 11:44:00;;;;;;;;;;;;;;;29.66;38.10;100074.52;108148;1254;61110;-78
2023/07/14 11:46:29;;;;;;;;;;;;;;;29.70;38.02;100069.30;108187;1254;59072;-78
2023/07/14 11:49:06;;;;;;;;;;;;;;;29.84;37.53;100070.11;108175;1254;64965;-78
2023/07/14 11:51:44;;;;;;;;;;;;;;;29.94;36.14;100069.34;108226;1254;64019;-79
2023/07/14 11:54:15;;;;;;;;;;;;;;;29.93;35.79;100070.30;108185;1254;65315;-81
2023/07/14 11:56:44;;;;;;;;;;;;;;;30.00;35.52;100060.12;108229;1254;61209;-80
2023/07/14 11:59:22;;;;;;;;;;;;;;;30.08;35.75;100062.69;108201;1254;61148;-80
2023/07/14 12:01:50;;;;;;;;;;;;;;;30.04;36.90;100066.48;108163;1254;65973;-80
2023/07/14 12:04:22;;;;;;;;;;;;;;;29.87;37.02;100069.93;108224;1254;64222;-81
2023/07/14 12:07:09;;;;;;;;;;;;;;;29.61;37.80;100076.23;108174;1254;62897;-80
2023/07/14 12:09:54;;;;;;;;;;;;;;;29.32;37.90;100076.77;108206;1254;61234;-79
2023/07/14 12:12:21;;;;;;;;;;;;;;;29.10;38.72;100078.85;108178;1254;61154;-79
2023/07/14 12:14:49;;;;;;;;;;;;;;;28.97;38.62;100081.11;108191;1254;66044;-80
2023/07/14 12:17:36;;;;;;;;;;;;;;;28.82;37.79;100083.85;108215;1254;63908;-80
2023/07/14 12:20:12;;;;;;;;;;;;;;;28.71;38.18;100088.95;108208;1254;63814;-81
2023/07/14 12:22:44;;;;;;;;;;;;;;;28.69;38.54;100089.42;108251;1254;61248;-79
2023/07/14 12:25:12;;;;;;;;;;;;;;;28.69;38.54;100092.71;108201;1254;60989;-81
2023/07/14 12:27:54;;;;;;;;;;;;;;;28.69;38.66;100091.62;108250;1254;64672;-81
2023/07/14 12:30:24;;;;;;;;;;;;;;;28.74;39.27;100090.67;108182;1254;72910;-81
2023/07/14 12:32:55;;;;;;;;;;;;;;;28.83;39.83;100086.05;108186;1254;64079;-80
2023/07/14 12:35:25;;;;;;;;;;;;;;;28.92;39.97;100083.77;108245;1254;60415;-81
2023/07/14 12:37:53;;;;;;;;;;;;;;;29.02;39.94;100084.58;108200;1253;61333;-81
2023/07/14 12:40:20;;;;;;;;;;;;;;;29.11;40.05;100084.34;108245;1254;65844;-79
2023/07/14 12:42:48;;;;;;;;;;;;;;;29.20;40.07;100085.75;108232;1254;63986;-81
2023/07/14 12:45:16;;;;;;;;;;;;;;;29.30;39.75;100085.34;108193;1254;63991;-81
2023/07/14 12:47:44;;;;;;;;;;;;;;;29.44;39.85;100084.13;108201;1254;61234;-80
2023/07/14 12:50:15;;;;;;;;;;;;;;;29.62;39.24;100082.61;108194;1254;61248;-81
2023/07/14 12:52:44;;;;;;;;;;;;;;;29.76;38.35;100078.16;108174;1254;65919;-80
2023/07/14 12:55:12;;;;;;;;;;;;;;;29.80;37.75;100078.14;108207;1254;64179;-82
2023/07/14 12:57:40;;;;;;;;;;;;;;;29.75;36.91;100081.47;108215;1256;63847;-82
2023/07/14 13:00:19;;;;;;;;;;;;;;;29.63;36.76;100084.80;108216;1254;61229;-81